Main page
METAR-TAF:

METAR-TAF

Airports :

Košice International Airport

Košice, Slovakia

latitude: 48-39-47N, longitude: 021-14-28E, elevation: 232 m

Current weather observation

The report was made 8 minutes ago, at 07:30 UTC
Wind 2 kt from variable directions
Temperature 26°C
Humidity 58%
Pressure 1013 hPa
Visibility 10 km or more
no clouds below 1500 m and no cumulonimbus

METAR: LZKZ 300730Z VRB02KT CAVOK 26/17 Q1013 NOSIG

Time: 09:38 (07:38 UTC)

Forecast

The report was made 2 hours and 38 minutes ago, at 05:00 UTC
Forecast valid from 30 at 06 UTC to 31 at 06 UTC
Wind 2 kt from variable directions
Visibility 10 km or more
no clouds below 1500 m and no cumulonimbus
Becoming
from 30 at 10 UTC to 30 at 12 UTC
Wind 10 kt from the Southwest
Becoming
from 30 at 19 UTC to 30 at 21 UTC
Wind 2 kt from variable directions

TAF: LZKZ 300500Z 3006/3106 VRB02KT CAVOK BECMG 3010/3012 23010KT BECMG 3019/3021 VRB02KT

Weather observations and forecasts of more than 4000 airports (METAR and TAF reports).

The available stations are represented by yellow and red dots on the map.

Hover mouse over dot to see the name of the station.

Then click to see weather observations and forecasts.

To change the map : click on the green buttons with a black cross to zoom in, on the green button with a dash to zoom out, or on the green arrows for adjacent maps.


METAR-TAF: